Lawsonville, North Carolina
Current Conditions -  °F | °C
As of 1:15 AM on Saturday 01 Nov 2014 (Local Time) from KMTV Reporting Station
Moderate Rain Moderate Rain  
Wind Chill: 43°   Ceiling: 3000
Heat Index: 43°   Visibility: 7mi
Dew Point: 43°   Wind: 0mph
Humidity: 100%   Direction: NA
Pressure: 29.81"   Gusts: NA
Location:  36.51°N, 80.22°W
Report Text: KMTV 010515Z AUTO 00000KT 7SM RA BKN030 OVC038 06/06 A2981 RMK AO2 P0004 T00630063
Loading
Personal Weather Stations






























Interactive Weather Map
Tropical Storm Tracking
New forecast layout! Learn more

10-Day Weather Forecast

Advertisements
Track Severe Weather on mobile